createdAt,value
2022-09-15T00:01:23.519Z,7.85
2022-09-15T00:03:52.000Z,8.75
2022-09-15T00:06:20.674Z,7.93
2022-09-15T00:08:48.905Z,8.90
2022-09-15T00:11:31.843Z,16.13
2022-09-15T00:14:02.264Z,8.68
2022-09-15T00:16:31.925Z,13.50
2022-09-15T00:19:01.502Z,12.10
2022-09-15T00:21:32.172Z,14.95
2022-09-15T00:24:01.718Z,12.35
2022-09-15T00:26:31.242Z,11.68
2022-09-15T00:29:00.835Z,12.50
2022-09-15T00:31:31.077Z,7.15
2022-09-15T00:34:00.980Z,8.18
2022-09-15T00:36:29.925Z,7.72
2022-09-15T00:38:58.457Z,7.90
2022-09-15T00:41:26.788Z,15.50
2022-09-15T00:43:58.340Z,13.32
2022-09-15T00:46:33.409Z,12.00
2022-09-15T00:49:07.167Z,11.80
2022-09-15T00:51:38.338Z,13.30
2022-09-15T00:54:11.800Z,15.77
2022-09-15T00:56:42.967Z,13.00
2022-09-15T00:59:17.512Z,13.07
2022-09-15T01:01:47.882Z,12.52
2022-09-15T01:04:17.183Z,13.15
2022-09-15T01:06:57.376Z,12.32
2022-09-15T01:09:51.412Z,11.30
2022-09-15T01:12:20.966Z,14.88
2022-09-15T01:14:49.149Z,12.18
2022-09-15T01:17:37.603Z,10.73
2022-09-15T01:20:24.307Z,10.73
2022-09-15T01:23:21.432Z,13.15
2022-09-15T01:26:15.537Z,13.25
2022-09-15T01:29:02.243Z,12.55
2022-09-15T01:31:34.602Z,14.35
2022-09-15T01:34:18.650Z,15.63
2022-09-15T01:36:56.790Z,9.00
2022-09-15T01:39:29.345Z,8.20
2022-09-15T01:42:10.729Z,10.43
2022-09-15T01:45:04.227Z,17.15
2022-09-15T01:47:34.745Z,12.90
2022-09-15T01:50:19.557Z,12.90
2022-09-15T01:52:50.196Z,13.18
2022-09-15T01:55:39.354Z,12.45
2022-09-15T01:58:08.832Z,19.15
2022-09-15T02:00:42.002Z,14.70
2022-09-15T02:03:20.886Z,16.90
2022-09-15T02:05:58.113Z,17.45
2022-09-15T02:08:37.100Z,14.25
2022-09-15T02:11:17.288Z,10.10
2022-09-15T02:14:07.132Z,12.73
2022-09-15T02:16:36.722Z,13.95
2022-09-15T02:19:31.159Z,11.82
2022-09-15T02:22:12.834Z,18.77
2022-09-15T02:24:48.461Z,12.40
2022-09-15T02:27:24.369Z,14.23
2022-09-15T02:29:56.414Z,10.48
2022-09-15T02:32:26.768Z,8.85
2022-09-15T02:34:57.648Z,9.05
2022-09-15T02:37:26.659Z,12.30
2022-09-15T02:39:57.584Z,9.43
2022-09-15T02:42:31.198Z,9.82
2022-09-15T02:45:00.951Z,11.20
2022-09-15T02:47:29.368Z,10.00
2022-09-15T02:49:57.479Z,8.20
2022-09-15T02:52:25.777Z,7.50
2022-09-15T02:54:53.900Z,8.63
2022-09-15T02:57:22.107Z,8.40
2022-09-15T02:59:50.209Z,8.38
2022-09-15T03:02:19.185Z,9.73
2022-09-15T03:04:50.960Z,5.72
2022-09-15T03:07:20.431Z,9.05
2022-09-15T03:09:48.599Z,8.80
2022-09-15T03:12:16.861Z,9.35
2022-09-15T03:14:45.108Z,4.97
2022-09-15T03:17:13.406Z,6.40
2022-09-15T03:19:41.601Z,7.13
2022-09-15T03:22:10.022Z,5.82
2022-09-15T03:24:38.875Z,5.03
2022-09-15T03:27:07.129Z,10.23
2022-09-15T03:29:35.368Z,9.20
2022-09-15T03:32:03.535Z,9.82
2022-09-15T03:34:31.773Z,8.98
2022-09-15T03:36:59.917Z,7.50
2022-09-15T03:39:28.099Z,7.18
2022-09-15T03:41:56.410Z,9.80
2022-09-15T03:44:24.492Z,5.50
2022-09-15T03:46:52.777Z,7.75
2022-09-15T03:49:21.039Z,5.05
2022-09-15T03:51:49.177Z,8.00
2022-09-15T03:54:18.050Z,6.10
2022-09-15T03:56:46.409Z,4.80
2022-09-15T03:59:14.641Z,5.47
2022-09-15T04:01:42.983Z,5.38
2022-09-15T04:04:11.250Z,6.38
2022-09-15T04:06:39.730Z,6.55
2022-09-15T04:09:08.209Z,5.55
2022-09-15T04:11:36.414Z,6.28
2022-09-15T04:14:04.692Z,9.25
2022-09-15T04:16:33.177Z,5.95
2022-09-15T04:19:01.458Z,9.50
2022-09-15T04:21:29.760Z,8.90
2022-09-15T04:23:57.933Z,7.95
2022-09-15T04:26:30.603Z,6.97
2022-09-15T04:29:03.663Z,5.78
2022-09-15T04:31:33.726Z,6.95
2022-09-15T04:34:02.378Z,6.53
2022-09-15T04:36:30.523Z,6.10
2022-09-15T04:38:58.879Z,4.80
2022-09-15T04:41:27.898Z,4.85
2022-09-15T04:43:56.406Z,5.35
2022-09-15T04:46:24.730Z,6.97
2022-09-15T04:48:52.838Z,5.40
2022-09-15T04:51:22.382Z,8.35
2022-09-15T04:53:51.076Z,6.93
2022-09-15T04:56:22.161Z,7.90
2022-09-15T04:58:53.226Z,7.78
2022-09-15T05:01:28.043Z,12.35
2022-09-15T05:03:57.215Z,6.25
2022-09-15T05:06:27.578Z,6.95
2022-09-15T05:08:57.844Z,6.40
2022-09-15T05:11:27.062Z,6.68
2022-09-15T05:13:55.426Z,7.05
2022-09-15T05:16:28.644Z,6.25
2022-09-15T05:18:59.580Z,8.82
2022-09-15T05:21:28.518Z,9.13
2022-09-15T05:23:56.859Z,10.23
2022-09-15T05:26:27.704Z,7.97
2022-09-15T05:28:57.127Z,9.75
2022-09-15T05:31:27.905Z,7.20
2022-09-15T05:33:56.242Z,5.22
2022-09-15T05:36:25.536Z,6.13
2022-09-15T05:38:54.842Z,5.28
2022-09-15T05:41:23.678Z,8.25
2022-09-15T05:43:52.285Z,7.43
2022-09-15T05:46:20.786Z,8.27
2022-09-15T05:48:49.280Z,8.40
2022-09-15T05:51:17.326Z,6.80
2022-09-15T05:53:45.554Z,5.72
2022-09-15T05:56:15.445Z,7.25
2022-09-15T05:58:45.906Z,7.82
2022-09-15T06:01:25.659Z,6.97
2022-09-15T06:03:55.616Z,6.80
2022-09-15T06:06:24.646Z,9.38
2022-09-15T06:08:58.165Z,8.52
2022-09-15T06:11:30.054Z,5.57
2022-09-15T06:14:02.470Z,6.35
2022-09-15T06:16:34.275Z,6.15
2022-09-15T06:19:02.674Z,6.82
2022-09-15T06:21:33.229Z,5.70
2022-09-15T06:24:03.870Z,5.22
2022-09-15T06:26:32.080Z,8.23
2022-09-15T06:30:58.080Z,9.30
2022-09-15T06:33:26.474Z,6.10
2022-09-15T06:37:51.644Z,7.47
2022-09-15T06:40:19.850Z,5.57
2022-09-15T06:42:47.997Z,7.70
2022-09-15T06:45:16.317Z,9.15
2022-09-15T06:47:44.426Z,16.05
2022-09-15T06:50:12.422Z,11.80
2022-09-15T06:52:40.638Z,6.90
2022-09-15T06:55:09.010Z,8.32
2022-09-15T06:57:37.226Z,5.53
2022-09-15T07:00:06.112Z,7.25
2022-09-15T07:02:34.507Z,7.38
2022-09-15T07:05:02.830Z,5.65
2022-09-15T07:07:30.960Z,6.40
2022-09-15T07:09:58.975Z,7.63
2022-09-15T07:12:27.259Z,11.23
2022-09-15T07:14:55.301Z,7.60
2022-09-15T07:17:23.414Z,7.80
2022-09-15T07:19:51.555Z,9.20
2022-09-15T07:22:19.709Z,7.22
2022-09-15T07:24:47.878Z,8.07
2022-09-15T07:27:16.172Z,8.15
2022-09-15T07:29:44.441Z,8.73
2022-09-15T07:32:12.523Z,10.45
2022-09-15T07:34:40.809Z,10.65
2022-09-15T07:37:09.179Z,13.88
2022-09-15T07:39:37.352Z,9.07
2022-09-15T07:42:05.782Z,8.88
2022-09-15T07:44:34.020Z,12.50
2022-09-15T07:47:02.082Z,10.05
2022-09-15T07:49:30.368Z,10.00
2022-09-15T07:51:58.806Z,9.77
2022-09-15T07:54:27.285Z,8.55
2022-09-15T07:56:55.415Z,8.60
2022-09-15T07:59:23.611Z,16.27
2022-09-15T08:01:51.891Z,10.10
2022-09-15T08:04:20.406Z,6.60
2022-09-15T08:06:48.674Z,9.70
2022-09-15T08:09:16.934Z,8.52
2022-09-15T08:11:45.201Z,15.23
2022-09-15T08:15:53.748Z,7.20
2022-09-15T08:18:22.106Z,6.88
2022-09-15T08:20:50.313Z,9.25
2022-09-15T08:23:18.522Z,7.90
2022-09-15T08:25:46.888Z,6.70
2022-09-15T08:28:14.981Z,9.05
2022-09-15T08:30:43.321Z,7.55
2022-09-15T08:33:11.505Z,6.28
2022-09-15T08:35:39.578Z,5.32
2022-09-15T08:38:07.941Z,5.63
2022-09-15T08:40:38.458Z,9.23
2022-09-15T08:43:21.581Z,7.25
2022-09-15T08:46:13.592Z,6.82
2022-09-15T08:48:51.210Z,6.10
2022-09-15T08:51:29.820Z,5.07
2022-09-15T08:54:06.543Z,8.75
2022-09-15T08:56:36.805Z,11.70
2022-09-15T08:59:06.346Z,7.25
2022-09-15T09:01:56.456Z,6.95
2022-09-15T09:04:57.102Z,5.18
2022-09-15T09:07:43.755Z,5.80
2022-09-15T09:10:34.867Z,8.35
2022-09-15T09:13:32.016Z,4.60
2022-09-15T09:16:12.225Z,5.75
2022-09-15T09:19:07.503Z,6.07
2022-09-15T09:21:55.181Z,6.93
2022-09-15T09:24:32.839Z,6.25
2022-09-15T09:27:01.029Z,7.30
2022-09-15T09:29:53.799Z,6.03
2022-09-15T09:32:26.208Z,6.85
2022-09-15T09:35:16.702Z,6.20
2022-09-15T09:37:45.283Z,5.55
2022-09-15T09:40:15.733Z,6.72
2022-09-15T09:42:45.457Z,5.60
2022-09-15T09:45:18.907Z,8.07
2022-09-15T09:47:47.428Z,5.25
2022-09-15T09:50:38.530Z,5.50
2022-09-15T09:53:28.434Z,7.47
2022-09-15T09:56:17.593Z,7.22
2022-09-15T09:58:46.016Z,6.25
2022-09-15T10:01:20.453Z,13.18
2022-09-15T10:03:48.817Z,8.95
2022-09-15T10:06:22.397Z,12.75
2022-09-15T10:09:02.920Z,6.20
2022-09-15T10:11:54.075Z,7.53
2022-09-15T10:14:33.336Z,8.75
2022-09-15T10:17:17.164Z,8.38
2022-09-15T10:19:48.324Z,7.30
2022-09-15T10:22:38.772Z,6.40
2022-09-15T10:25:22.993Z,9.45
2022-09-15T10:28:27.438Z,7.25
2022-09-15T10:31:15.450Z,8.55
2022-09-15T10:33:45.550Z,5.95
2022-09-15T10:36:45.222Z,4.93
2022-09-15T10:39:21.515Z,5.55
2022-09-15T10:42:12.932Z,6.13
2022-09-15T10:44:59.523Z,5.63
2022-09-15T10:47:39.211Z,7.80
2022-09-15T10:50:10.376Z,8.93
2022-09-15T10:53:03.124Z,7.68
2022-09-15T10:56:05.428Z,5.65
2022-09-15T10:58:51.887Z,7.65
2022-09-15T11:01:30.857Z,9.68
2022-09-15T11:04:14.214Z,7.07
2022-09-15T11:07:17.986Z,7.47
2022-09-15T11:09:49.196Z,6.93
2022-09-15T11:12:29.614Z,8.65
2022-09-15T11:15:20.064Z,8.20
2022-09-15T11:18:06.529Z,6.28
2022-09-15T11:21:13.083Z,7.18
2022-09-15T11:24:01.293Z,7.03
2022-09-15T11:26:29.564Z,7.20
2022-09-15T11:29:06.189Z,9.02
2022-09-15T11:31:44.423Z,12.30
2022-09-15T11:34:48.153Z,15.20
2022-09-15T11:37:45.872Z,7.32
2022-09-15T11:40:29.193Z,5.55
2022-09-15T11:43:04.158Z,7.93
2022-09-15T11:45:41.507Z,7.50
2022-09-15T11:48:30.376Z,5.57
2022-09-15T11:51:02.329Z,5.70
2022-09-15T11:56:32.740Z,6.13
2022-09-15T11:59:10.935Z,7.10
2022-09-15T12:02:08.266Z,6.75
2022-09-15T12:04:43.505Z,9.05
2022-09-15T12:07:18.293Z,8.50
2022-09-15T12:09:46.687Z,7.82
2022-09-15T12:12:18.846Z,7.10
2022-09-15T12:14:52.773Z,7.95
2022-09-15T12:17:30.816Z,6.88
2022-09-15T12:20:14.469Z,7.45
2022-09-15T12:22:52.949Z,10.18
2022-09-15T12:25:23.704Z,9.63
2022-09-15T12:28:22.837Z,12.98
2022-09-15T12:31:11.621Z,8.23
2022-09-15T12:33:53.491Z,12.85
2022-09-15T12:36:38.565Z,15.70
2022-09-15T12:39:20.679Z,8.68
2022-09-15T12:44:47.900Z,8.43
2022-09-15T12:47:25.046Z,7.20
2022-09-15T12:49:57.553Z,9.48
2022-09-15T12:52:26.869Z,10.63
2022-09-15T12:55:04.929Z,7.20
2022-09-15T12:57:36.767Z,12.52
2022-09-15T13:00:21.304Z,10.48
2022-09-15T13:02:51.570Z,10.73
2022-09-15T13:06:15.545Z,12.27
2022-09-15T13:08:55.912Z,11.10
2022-09-15T13:11:36.472Z,9.60
2022-09-15T13:14:04.864Z,10.13
2022-09-15T13:16:42.392Z,8.82
2022-09-15T13:19:24.986Z,17.65
2022-09-15T13:22:02.912Z,8.57
2022-09-15T13:24:49.389Z,10.13
2022-09-15T13:27:26.618Z,10.38
2022-09-15T13:30:10.282Z,13.23
2022-09-15T13:32:44.497Z,12.13
2022-09-15T13:35:57.405Z,13.77
2022-09-15T13:38:31.829Z,12.75
2022-09-15T13:41:24.673Z,12.82
2022-09-15T13:46:42.443Z,18.25
2022-09-15T13:49:28.792Z,10.43
2022-09-15T13:52:19.967Z,13.75
2022-09-15T13:55:09.810Z,15.68
2022-09-15T14:00:43.169Z,11.05
2022-09-15T14:03:14.336Z,11.30
2022-09-15T14:05:42.995Z,9.18
2022-09-15T14:08:21.488Z,19.02
2022-09-15T14:12:31.386Z,8.80
2022-09-15T14:15:04.158Z,11.63
2022-09-15T14:17:45.944Z,12.90
2022-09-15T14:20:28.102Z,8.32
2022-09-15T14:25:24.370Z,10.82
2022-09-15T14:27:55.219Z,6.28
2022-09-15T14:30:28.162Z,7.43
2022-09-15T14:33:00.813Z,6.90
2022-09-15T14:35:37.669Z,6.32
2022-09-15T14:38:06.100Z,10.10
2022-09-15T14:40:39.607Z,9.23
2022-09-15T14:43:25.650Z,7.10
2022-09-15T14:46:02.901Z,4.93
2022-09-15T14:48:34.608Z,8.10
2022-09-15T14:51:08.948Z,7.47
2022-09-15T14:53:40.200Z,9.93
2022-09-15T14:56:19.861Z,16.27
2022-09-15T14:58:48.049Z,8.80
2022-09-15T15:01:29.143Z,8.38
2022-09-15T15:04:15.923Z,9.40
2022-09-15T15:07:29.795Z,10.73
2022-09-15T15:10:02.159Z,9.55
2022-09-15T15:12:40.227Z,9.57
2022-09-15T15:15:13.101Z,9.88
2022-09-15T15:17:43.952Z,10.15
2022-09-15T15:20:15.063Z,7.07
2022-09-15T15:22:45.013Z,15.60
2022-09-15T15:25:32.730Z,11.30
2022-09-15T15:28:02.050Z,10.65
2022-09-15T15:30:32.398Z,10.38
2022-09-15T15:33:29.582Z,12.50
2022-09-15T15:36:20.771Z,9.27
2022-09-15T15:39:18.839Z,9.63
2022-09-15T15:44:15.217Z,7.97
2022-09-15T15:47:03.552Z,9.93
2022-09-15T15:49:32.898Z,6.88
2022-09-15T15:52:01.927Z,8.02
2022-09-15T15:54:30.523Z,8.55
2022-09-15T15:57:21.217Z,7.63
2022-09-15T15:59:49.669Z,10.18
2022-09-15T16:02:17.965Z,8.40
2022-09-15T16:04:46.122Z,6.85
2022-09-15T16:07:19.218Z,6.35
2022-09-15T16:09:48.641Z,8.13
2022-09-15T16:12:17.247Z,8.57
2022-09-15T16:14:45.430Z,8.27
2022-09-15T16:17:13.639Z,7.35
2022-09-15T16:19:41.836Z,7.70
2022-09-15T16:22:18.051Z,6.38
2022-09-15T16:24:46.283Z,8.38
2022-09-15T16:27:18.654Z,7.28
2022-09-15T16:29:48.337Z,6.35
2022-09-15T16:32:19.983Z,5.78
2022-09-15T16:34:48.818Z,8.13
2022-09-15T16:37:16.928Z,9.48
2022-09-15T16:39:45.300Z,11.85
2022-09-15T16:42:13.645Z,9.90
2022-09-15T16:44:41.783Z,15.23
2022-09-15T16:47:09.868Z,13.23
2022-09-15T16:49:38.178Z,7.05
2022-09-15T16:52:06.652Z,9.63
2022-09-15T16:54:34.897Z,9.10
2022-09-15T16:57:03.080Z,9.35
2022-09-15T16:59:31.420Z,10.60
2022-09-15T17:01:59.713Z,11.80
2022-09-15T17:04:28.024Z,10.65
2022-09-15T17:06:56.321Z,17.50
2022-09-15T17:09:24.432Z,13.52
2022-09-15T17:11:53.998Z,12.70
2022-09-15T17:14:22.308Z,20.90
2022-09-15T17:16:50.534Z,11.60
2022-09-15T17:19:18.775Z,11.40
2022-09-15T17:21:47.759Z,11.52
2022-09-15T17:24:16.610Z,12.10
2022-09-15T17:26:46.575Z,15.05
2022-09-15T17:29:14.897Z,15.10
2022-09-15T17:31:43.033Z,14.98
2022-09-15T17:34:14.449Z,13.88
2022-09-15T17:36:42.706Z,10.57
2022-09-15T17:39:10.855Z,16.02
2022-09-15T17:41:39.151Z,15.57
2022-09-15T17:44:11.765Z,14.63
2022-09-15T17:46:40.194Z,17.40
2022-09-15T17:49:08.449Z,17.13
2022-09-15T17:51:36.663Z,11.68
2022-09-15T17:54:04.897Z,12.38
2022-09-15T17:56:33.229Z,10.60
2022-09-15T17:59:01.441Z,14.18
2022-09-15T18:01:29.659Z,14.23
2022-09-15T18:03:58.194Z,10.25
2022-09-15T18:06:26.366Z,11.57
2022-09-15T18:08:54.526Z,13.15
2022-09-15T18:11:22.927Z,15.15
2022-09-15T18:13:51.025Z,17.15
2022-09-15T18:16:19.334Z,12.55
2022-09-15T18:18:47.596Z,14.43
2022-09-15T18:21:25.980Z,12.82
2022-09-15T18:23:54.170Z,13.43
2022-09-15T18:26:26.326Z,20.52
2022-09-15T18:28:55.321Z,20.60
2022-09-15T18:31:23.905Z,15.57
2022-09-15T18:33:52.128Z,19.88
2022-09-15T18:36:20.386Z,21.80
2022-09-15T18:38:48.490Z,12.90
2022-09-15T18:41:16.631Z,15.98
2022-09-15T18:43:44.934Z,22.58
2022-09-15T18:46:13.153Z,15.20
2022-09-15T18:48:41.946Z,18.65
2022-09-15T18:51:13.842Z,16.67
2022-09-15T18:53:52.057Z,16.05
2022-09-15T18:56:22.311Z,23.48
2022-09-15T18:58:53.812Z,28.27
2022-09-15T19:01:22.593Z,32.55
2022-09-15T19:03:50.810Z,26.13
2022-09-15T19:06:19.197Z,26.45
2022-09-15T19:08:47.419Z,33.00
2022-09-15T19:11:15.840Z,26.65
2022-09-15T19:13:44.072Z,19.45
2022-09-15T19:16:12.309Z,22.33
2022-09-15T19:18:40.748Z,18.63
2022-09-15T19:21:11.554Z,14.20
2022-09-15T19:23:40.047Z,28.90
2022-09-15T19:26:10.824Z,17.50
2022-09-15T19:28:39.429Z,17.75
2022-09-15T19:31:07.857Z,16.73
2022-09-15T19:33:36.101Z,16.85
2022-09-15T19:36:26.976Z,21.73
2022-09-15T19:38:54.788Z,14.98
2022-09-15T19:41:22.980Z,19.65
2022-09-15T19:43:51.143Z,18.13
2022-09-15T19:46:21.933Z,24.15
2022-09-15T19:48:50.597Z,54.10
2022-09-15T19:51:19.794Z,28.98
2022-09-15T19:53:48.284Z,31.42
2022-09-15T19:56:21.749Z,34.42
2022-09-15T19:58:50.595Z,29.27
2022-09-15T20:01:18.702Z,28.73
2022-09-15T20:03:47.046Z,44.25
2022-09-15T20:06:15.207Z,46.65
2022-09-15T20:08:43.366Z,29.63
2022-09-15T20:11:11.549Z,23.60
2022-09-15T20:13:42.067Z,23.10
2022-09-15T20:16:17.379Z,13.85
2022-09-15T20:18:47.313Z,22.35
2022-09-15T20:21:32.435Z,16.33
2022-09-15T20:24:06.322Z,14.60
2022-09-15T20:26:34.533Z,16.98
2022-09-15T20:29:04.016Z,19.92
2022-09-15T20:31:32.566Z,21.10
2022-09-15T20:34:01.781Z,23.40
2022-09-15T20:36:32.978Z,13.57
2022-09-15T20:39:02.090Z,13.93
2022-09-15T20:41:30.659Z,14.98
2022-09-15T20:43:59.433Z,15.98
2022-09-15T20:46:27.522Z,30.98
2022-09-15T20:48:55.766Z,45.42
2022-09-15T20:51:26.326Z,74.70
2022-09-15T20:53:56.574Z,84.85
2022-09-15T20:56:27.413Z,31.20
2022-09-15T20:58:57.667Z,17.77
2022-09-15T21:01:33.306Z,14.77
2022-09-15T21:04:02.189Z,19.25
2022-09-15T21:06:30.384Z,15.88
2022-09-15T21:08:58.804Z,16.48
2022-09-15T21:11:28.236Z,21.80
2022-09-15T21:13:57.426Z,23.40
2022-09-15T21:16:28.752Z,20.65
2022-09-15T21:18:59.084Z,19.77
2022-09-15T21:21:30.881Z,19.45
2022-09-15T21:24:05.450Z,17.02
2022-09-15T21:26:36.242Z,46.78
2022-09-15T21:29:04.411Z,75.68
2022-09-15T21:31:33.717Z,97.38
2022-09-15T21:34:01.994Z,95.20
2022-09-15T21:36:31.721Z,51.33
2022-09-15T21:39:00.501Z,28.27
2022-09-15T21:41:29.549Z,31.13
2022-09-15T21:43:58.010Z,31.77
2022-09-15T21:46:31.890Z,43.40
2022-09-15T21:49:01.075Z,47.85
2022-09-15T21:51:30.187Z,35.97
2022-09-15T21:53:59.823Z,31.73
2022-09-15T21:56:29.640Z,40.05
2022-09-15T21:58:57.835Z,32.13
2022-09-15T22:01:28.356Z,22.25
2022-09-15T22:04:00.041Z,34.83
2022-09-15T22:06:32.248Z,32.05
2022-09-15T22:11:29.200Z,28.80
2022-09-15T22:13:57.743Z,27.10
2022-09-15T22:16:26.589Z,26.83
2022-09-15T22:18:55.211Z,21.10
2022-09-15T22:21:29.313Z,19.48
2022-09-15T22:23:58.857Z,13.07
2022-09-15T22:26:32.721Z,12.63
2022-09-15T22:29:01.700Z,33.22
2022-09-15T22:31:30.653Z,39.33
2022-09-15T22:33:59.012Z,24.55
2022-09-15T22:36:30.294Z,35.92
2022-09-15T22:39:00.265Z,36.30
2022-09-15T22:41:28.531Z,50.85
2022-09-15T22:43:56.784Z,20.60
2022-09-15T22:46:25.529Z,15.02
2022-09-15T22:48:53.876Z,18.70
2022-09-15T22:51:22.108Z,13.88
2022-09-15T22:53:54.178Z,9.65
2022-09-15T22:56:22.431Z,15.32
2022-09-15T22:58:50.988Z,12.60
2022-09-15T23:01:22.191Z,24.33
2022-09-15T23:03:59.150Z,17.43
2022-09-15T23:06:30.885Z,11.18
2022-09-15T23:09:02.355Z,17.52
2022-09-15T23:11:31.028Z,9.30
2022-09-15T23:13:59.356Z,15.77
2022-09-15T23:16:27.765Z,11.93
2022-09-15T23:18:56.246Z,11.73
2022-09-15T23:21:24.311Z,12.38
2022-09-15T23:23:55.000Z,13.15
2022-09-15T23:26:24.552Z,13.85
2022-09-15T23:28:52.819Z,13.85
2022-09-15T23:31:21.986Z,13.88
2022-09-15T23:33:50.516Z,18.90
2022-09-15T23:36:19.809Z,11.93
2022-09-15T23:38:49.622Z,12.07
2022-09-15T23:41:18.955Z,14.23
2022-09-15T23:43:47.822Z,14.77
2022-09-15T23:46:16.613Z,22.42
2022-09-15T23:48:45.292Z,11.63
2022-09-15T23:51:13.682Z,15.20
2022-09-15T23:53:41.750Z,10.45
2022-09-15T23:56:10.229Z,14.63
2022-09-15T23:58:38.391Z,11.18
